createdAt,value
2019-05-01T00:02:24.334Z,101283.48
2019-05-01T00:14:45.844Z,101266.20
2019-05-01T00:20:30.493Z,101278.05
2019-05-01T00:23:19.329Z,101269.34
2019-05-01T00:26:08.333Z,101274.67
2019-05-01T00:28:57.242Z,101273.47
2019-05-01T00:31:46.214Z,101267.53
2019-05-01T00:34:35.110Z,101262.33
2019-05-01T00:37:24.010Z,101249.63
2019-05-01T00:40:12.987Z,101260.54
2019-05-01T00:43:01.933Z,101260.34
2019-05-01T00:45:50.744Z,101261.03
2019-05-01T00:48:32.935Z,101258.38
2019-05-01T00:51:21.820Z,101249.59
2019-05-01T00:54:10.618Z,101252.48
2019-05-01T00:57:18.556Z,101249.02
2019-05-01T01:00:26.564Z,101248.23
2019-05-01T01:02:56.153Z,101248.54
2019-05-01T01:05:44.963Z,101252.99
2019-05-01T01:08:33.858Z,101249.45
2019-05-01T01:11:22.752Z,101241.62
2019-05-01T01:14:11.595Z,101240.63
2019-05-01T01:17:00.492Z,101234.29
2019-05-01T01:19:49.331Z,101235.88
2019-05-01T01:22:38.221Z,101233.79
2019-05-01T01:25:27.141Z,101233.79
2019-05-01T01:28:15.963Z,101233.22
2019-05-01T01:31:04.990Z,101237.37
2019-05-01T01:33:53.900Z,101229.61
2019-05-01T01:36:42.751Z,101225.05
2019-05-01T01:39:12.428Z,101219.69
2019-05-01T01:42:01.412Z,101226.23
2019-05-01T01:47:41.164Z,101226.23
2019-05-01T01:50:30.083Z,101216.80
2019-05-01T01:56:47.790Z,101213.80
2019-05-01T01:59:36.776Z,101211.09
2019-05-01T02:02:44.713Z,101203.95
2019-05-01T02:08:55.761Z,101210.76
2019-05-01T02:11:33.799Z,101204.18
2019-05-01T02:14:22.711Z,101201.94
2019-05-01T02:17:11.600Z,101202.32
2019-05-01T02:20:00.505Z,101202.35
2019-05-01T02:22:49.373Z,101197.69
2019-05-01T02:28:52.984Z,101194.33
2019-05-01T02:44:42.872Z,101183.47
2019-05-01T02:47:26.336Z,101182.98
2019-05-01T02:50:15.253Z,101184.34
2019-05-01T02:53:04.135Z,101185.06
2019-05-01T03:05:38.483Z,101178.31
2019-05-01T03:08:27.595Z,101179.26
2019-05-01T03:11:16.492Z,101178.03
2019-05-01T03:20:54.072Z,101177.73
2019-05-01T03:24:03.433Z,101174.92
2019-05-01T03:26:52.378Z,101170.89
2019-05-01T03:32:36.573Z,101179.49
2019-05-01T03:38:53.773Z,101169.60
2019-05-01T03:41:42.647Z,101164.48
2019-05-01T03:44:31.496Z,101163.84
2019-05-01T03:47:14.005Z,101167.38
2019-05-01T03:53:18.028Z,101169.63
2019-05-01T03:56:07.209Z,101168.98
2019-05-01T03:58:56.101Z,101166.97
2019-05-01T04:04:40.756Z,101159.36
2019-05-01T04:07:29.662Z,101160.97
2019-05-01T04:19:43.908Z,101170.17
2019-05-01T04:22:53.265Z,101168.94
2019-05-01T04:25:42.171Z,101174.57
2019-05-01T04:32:05.403Z,101175.73
2019-05-01T04:37:50.052Z,101168.68
2019-05-01T04:40:38.870Z,101176.34
2019-05-01T04:43:27.776Z,101178.55
2019-05-01T04:46:16.727Z,101177.58
2019-05-01T04:49:05.627Z,101174.95
2019-05-01T04:51:54.525Z,101181.34
2019-05-01T04:54:43.543Z,101187.84
2019-05-01T04:57:32.562Z,101184.60
2019-05-01T05:00:21.414Z,101184.02
2019-05-01T05:06:19.731Z,101178.89
2019-05-01T05:09:08.560Z,101174.50
2019-05-01T05:14:57.181Z,101177.16
2019-05-01T05:17:46.141Z,101178.98
2019-05-01T05:20:35.233Z,101177.84
2019-05-01T05:23:24.329Z,101178.63
2019-05-01T05:26:13.221Z,101177.19
2019-05-01T05:29:02.146Z,101175.41
2019-05-01T05:35:40.226Z,101177.78
2019-05-01T05:44:54.981Z,101189.98
2019-05-01T05:47:36.535Z,101186.08
2019-05-01T05:50:44.600Z,101186.71
2019-05-01T06:03:57.562Z,101191.36
2019-05-01T06:10:34.273Z,101194.88
2019-05-01T06:17:10.458Z,101185.34
2019-05-01T06:32:57.657Z,101188.36
2019-05-01T06:35:46.578Z,101194.14
2019-05-01T06:38:36.104Z,101187.89
2019-05-01T06:45:16.853Z,101189.46
2019-05-01T06:47:58.364Z,101177.53
2019-05-01T06:54:22.542Z,101181.05
2019-05-01T07:00:26.655Z,101183.27
2019-05-01T07:03:15.578Z,101184.41
2019-05-01T07:06:14.137Z,101183.35
2019-05-01T07:08:55.361Z,101186.73
2019-05-01T07:18:13.365Z,101195.25
2019-05-01T07:21:02.348Z,101203.21
2019-05-01T07:23:52.305Z,101199.50
2019-05-01T07:26:43.832Z,101202.39
2019-05-01T07:32:28.262Z,101202.52
2019-05-01T07:35:17.168Z,101203.11
2019-05-01T07:38:06.221Z,101200.35
2019-05-01T07:40:58.891Z,101197.41
2019-05-01T07:44:04.958Z,101196.41
2019-05-01T07:49:58.161Z,101196.78
2019-05-01T07:53:07.548Z,101199.09
2019-05-01T07:59:27.473Z,101204.06
2019-05-01T08:02:15.516Z,101200.17
2019-05-01T08:05:24.359Z,101204.28
2019-05-01T08:08:13.269Z,101206.08
2019-05-01T08:11:05.319Z,101208.02
2019-05-01T08:13:52.668Z,101209.62
2019-05-01T08:16:22.344Z,101206.35
2019-05-01T08:25:20.064Z,101201.89
2019-05-01T08:34:20.615Z,101204.44
2019-05-01T08:37:08.802Z,101204.75
2019-05-01T08:39:57.653Z,101212.44
2019-05-01T08:42:46.517Z,101211.58
2019-05-01T08:45:35.711Z,101210.42
2019-05-01T08:48:44.877Z,101212.00
2019-05-01T08:51:34.763Z,101213.30
2019-05-01T08:54:24.347Z,101217.29
2019-05-01T08:57:13.175Z,101215.78
2019-05-01T09:00:02.095Z,101215.91
2019-05-01T09:02:50.961Z,101212.80
2019-05-01T09:05:39.825Z,101209.27
2019-05-01T09:08:32.006Z,101216.55
2019-05-01T09:11:19.256Z,101209.26
2019-05-01T09:14:08.129Z,101206.87
2019-05-01T09:16:56.997Z,101208.28
2019-05-01T09:19:45.904Z,101202.16
2019-05-01T09:22:34.824Z,101204.09
2019-05-01T09:34:24.950Z,101200.61
2019-05-01T09:37:13.842Z,101196.45
2019-05-01T09:43:17.434Z,101191.36
2019-05-01T09:46:06.396Z,101192.67
2019-05-01T09:48:48.649Z,101188.57
2019-05-01T09:51:56.682Z,101197.07
2019-05-01T09:57:42.840Z,101197.46
2019-05-01T10:03:41.520Z,101197.77
2019-05-01T10:06:30.426Z,101195.31
2019-05-01T10:09:19.343Z,101188.28
2019-05-01T10:12:11.618Z,101181.11
2019-05-01T10:14:58.893Z,101183.58
2019-05-01T10:17:47.779Z,101180.73
2019-05-01T10:20:36.619Z,101177.05
2019-05-01T10:23:25.492Z,101171.89
2019-05-01T10:29:42.882Z,101162.61
2019-05-01T10:38:39.815Z,101171.65
2019-05-01T10:41:27.829Z,101167.54
2019-05-01T10:44:16.738Z,101161.03
2019-05-01T10:47:05.587Z,101160.48
2019-05-01T10:49:47.225Z,101152.09
2019-05-01T10:52:36.075Z,101154.09
2019-05-01T10:55:24.984Z,101149.05
2019-05-01T10:58:18.307Z,101150.27
2019-05-01T11:01:23.513Z,101147.09
2019-05-01T11:04:12.430Z,101139.45
2019-05-01T11:07:01.285Z,101136.02
2019-05-01T11:09:50.154Z,101133.94
2019-05-01T11:12:39.003Z,101132.02
2019-05-01T11:15:27.942Z,101128.53
2019-05-01T11:18:16.805Z,101126.77
2019-05-01T11:21:05.726Z,101120.77
2019-05-01T11:23:54.554Z,101125.33
2019-05-01T11:26:43.501Z,101116.58
2019-05-01T11:29:32.317Z,101117.85
2019-05-01T11:35:16.470Z,101113.62
2019-05-01T11:38:24.362Z,101108.46
2019-05-01T11:41:32.292Z,101106.53
2019-05-01T11:44:21.205Z,101110.09
2019-05-01T11:47:10.179Z,101107.48
2019-05-01T11:49:59.060Z,101102.78
2019-05-01T11:52:47.906Z,101107.05
2019-05-01T11:55:36.752Z,101107.14
2019-05-01T11:58:25.592Z,101100.98
2019-05-01T12:04:10.303Z,101097.14
2019-05-01T12:06:59.330Z,101091.42
2019-05-01T12:09:48.258Z,101087.91
2019-05-01T12:12:37.093Z,101085.33
2019-05-01T12:15:26.030Z,101082.77
2019-05-01T12:18:14.857Z,101088.67
2019-05-01T12:21:03.876Z,101079.56
2019-05-01T12:23:52.740Z,101081.67
2019-05-01T12:26:41.627Z,101084.02
2019-05-01T12:29:30.467Z,101082.11
2019-05-01T12:32:19.438Z,101071.60
2019-05-01T12:35:08.508Z,101073.57
2019-05-01T12:41:12.126Z,101066.66
2019-05-01T12:44:01.185Z,101073.91
2019-05-01T12:47:09.038Z,101070.09
2019-05-01T12:49:57.964Z,101067.87
2019-05-01T12:53:05.814Z,101064.55
2019-05-01T12:56:13.695Z,101059.93
2019-05-01T12:59:02.623Z,101057.77
2019-05-01T13:01:51.907Z,101058.06
2019-05-01T13:04:40.748Z,101050.00
2019-05-01T13:07:29.743Z,101049.06
2019-05-01T13:10:18.677Z,101047.99
2019-05-01T13:13:07.607Z,101044.92
2019-05-01T13:15:56.517Z,101041.42
2019-05-01T13:18:45.366Z,101032.91
2019-05-01T13:21:34.228Z,101031.05
2019-05-01T13:24:23.151Z,101027.75
2019-05-01T13:27:30.997Z,101025.24
2019-05-01T13:30:38.871Z,101027.36
2019-05-01T13:33:27.776Z,101017.47
2019-05-01T13:36:16.651Z,101013.77
2019-05-01T13:39:26.348Z,101013.23
2019-05-01T13:42:15.201Z,101001.28
2019-05-01T13:45:24.656Z,101000.30
2019-05-01T13:48:13.496Z,100996.35
2019-05-01T13:50:55.444Z,100987.62
2019-05-01T13:53:44.300Z,100987.27
2019-05-01T13:56:33.158Z,100986.09
2019-05-01T13:59:22.056Z,100979.70
2019-05-01T14:02:11.081Z,100985.18
2019-05-01T14:04:59.942Z,100984.72
2019-05-01T14:07:49.024Z,100978.78
2019-05-01T14:10:37.946Z,100968.75
2019-05-01T14:13:26.776Z,100973.20
2019-05-01T14:16:15.658Z,100967.59
2019-05-01T14:19:04.657Z,100959.63
2019-05-01T14:22:12.563Z,100957.59
2019-05-01T14:28:10.899Z,100945.83
2019-05-01T14:30:59.747Z,100951.03
2019-05-01T14:33:48.700Z,100936.53
2019-05-01T14:36:37.594Z,100942.83
2019-05-01T14:39:26.552Z,100939.80
2019-05-01T14:42:15.469Z,100941.09
2019-05-01T14:45:25.280Z,100935.59
2019-05-01T14:48:14.154Z,100933.98
2019-05-01T14:50:55.791Z,100932.16
2019-05-01T14:53:44.704Z,100935.45
2019-05-01T14:56:33.560Z,100929.10
2019-05-01T14:59:22.504Z,100925.53
2019-05-01T15:02:11.390Z,100928.03
2019-05-01T15:05:00.375Z,100926.19
2019-05-01T15:07:49.287Z,100927.80
2019-05-01T15:10:38.205Z,100923.06
2019-05-01T15:16:55.358Z,100917.43
2019-05-01T15:20:03.218Z,100903.04
2019-05-01T15:22:52.095Z,100899.88
2019-05-01T15:25:41.077Z,100900.20
2019-05-01T15:28:29.946Z,100896.83
2019-05-01T15:31:18.805Z,100890.48
2019-05-01T15:34:07.651Z,100891.29
2019-05-01T15:36:56.585Z,100888.09
2019-05-01T15:43:00.179Z,100880.19
2019-05-01T15:45:48.997Z,100878.74
2019-05-01T15:48:37.878Z,100876.61
2019-05-01T15:51:26.698Z,100870.38
2019-05-01T15:54:15.619Z,100873.75
2019-05-01T16:03:34.013Z,100867.91
2019-05-01T16:06:22.856Z,100865.55
2019-05-01T16:09:11.761Z,100860.44
2019-05-01T16:12:19.718Z,100858.41
2019-05-01T16:18:24.565Z,100854.56
2019-05-01T16:21:13.596Z,100849.17
2019-05-01T16:24:02.472Z,100841.50
2019-05-01T16:26:51.272Z,100842.64
2019-05-01T16:29:40.165Z,100840.73
2019-05-01T16:35:38.420Z,100832.98
2019-05-01T16:38:46.623Z,100833.17
2019-05-01T16:41:35.610Z,100835.20
2019-05-01T16:44:24.561Z,100822.61
2019-05-01T16:47:13.461Z,100827.91
2019-05-01T16:50:02.324Z,100822.11
2019-05-01T16:52:44.390Z,100821.30
2019-05-01T16:55:33.304Z,100818.59
2019-05-01T16:58:22.312Z,100813.77
2019-05-01T17:04:58.813Z,100815.73
2019-05-01T17:08:06.656Z,100813.20
2019-05-01T17:10:55.594Z,100809.45
2019-05-01T17:13:44.519Z,100805.72
2019-05-01T17:16:33.383Z,100802.37
2019-05-01T17:19:22.305Z,100801.97
2019-05-01T17:22:14.418Z,100797.98
2019-05-01T17:25:01.848Z,100791.82
2019-05-01T17:27:50.711Z,100789.66
2019-05-01T17:34:09.819Z,100796.47
2019-05-01T17:36:59.390Z,100790.00
2019-05-01T17:39:48.258Z,100794.86
2019-05-01T17:42:37.634Z,100795.79
2019-05-01T17:45:29.944Z,100803.18
2019-05-01T17:48:18.407Z,100787.96
2019-05-01T17:51:07.250Z,100791.89
2019-05-01T17:53:48.736Z,100791.45
2019-05-01T17:56:37.681Z,100793.22
2019-05-01T17:59:26.546Z,100786.19
2019-05-01T18:02:34.491Z,100783.55
2019-05-01T18:08:19.544Z,100790.47
2019-05-01T18:11:09.386Z,100788.66
2019-05-01T18:13:59.074Z,100786.86
2019-05-01T18:16:47.995Z,100786.81
2019-05-01T18:19:36.878Z,100784.59
2019-05-01T18:25:54.246Z,100780.92
2019-05-01T18:29:05.849Z,100781.26
2019-05-01T18:31:52.854Z,100781.12
2019-05-01T18:34:41.815Z,100786.22
2019-05-01T18:37:49.699Z,100780.51
2019-05-01T18:43:48.131Z,100775.55
2019-05-01T18:46:37.037Z,100780.17
2019-05-01T18:49:25.959Z,100776.16
2019-05-01T18:52:08.948Z,100782.11
2019-05-01T18:54:57.813Z,100778.88
2019-05-01T18:57:46.656Z,100775.71
2019-05-01T19:00:35.594Z,100775.97
2019-05-01T19:03:24.475Z,100780.16
2019-05-01T19:06:13.508Z,100776.08
2019-05-01T19:09:14.343Z,100775.97
2019-05-01T19:11:53.020Z,100777.12
2019-05-01T19:14:41.862Z,100776.61
2019-05-01T19:17:30.850Z,100774.34
2019-05-01T19:20:19.772Z,100777.27
2019-05-01T19:23:08.770Z,100774.95
2019-05-01T19:28:57.496Z,100778.22
2019-05-01T19:31:46.462Z,100772.44
2019-05-01T19:34:35.303Z,100773.18
2019-05-01T19:37:28.201Z,100771.80
2019-05-01T19:43:43.718Z,100777.38
2019-05-01T19:46:32.659Z,100768.72
2019-05-01T19:49:24.746Z,100773.05
2019-05-01T19:52:12.324Z,100775.70
2019-05-01T19:54:54.416Z,100773.37
2019-05-01T19:57:44.358Z,100770.09
2019-05-01T20:00:45.703Z,100769.09
2019-05-01T20:03:36.791Z,100768.47
2019-05-01T20:06:25.181Z,100768.78
2019-05-01T20:12:23.436Z,100767.78
2019-05-01T20:15:12.268Z,100762.65
2019-05-01T20:18:01.146Z,100768.25
2019-05-01T20:20:50.040Z,100765.97
2019-05-01T20:23:38.993Z,100761.58
2019-05-01T20:26:32.180Z,100760.12
2019-05-01T20:29:00.452Z,100757.84
2019-05-01T20:31:50.722Z,100749.13
2019-05-01T20:34:40.325Z,100760.33
2019-05-01T20:37:29.219Z,100755.97
2019-05-01T20:40:18.279Z,100752.80
2019-05-01T20:43:07.382Z,100754.95
2019-05-01T20:45:56.380Z,100750.48
2019-05-01T20:48:45.287Z,100756.09
2019-05-01T20:51:34.204Z,100746.81
2019-05-01T20:54:16.550Z,100745.56
2019-05-01T20:59:55.618Z,100748.71
2019-05-01T21:02:44.601Z,100744.66
2019-05-01T21:11:28.527Z,100739.25
2019-05-01T21:14:22.728Z,100747.44
2019-05-01T21:17:09.487Z,100742.19
2019-05-01T21:19:58.687Z,100736.73
2019-05-01T21:22:47.564Z,100744.45
2019-05-01T21:25:36.473Z,100741.84
2019-05-01T21:28:25.330Z,100743.48
2019-05-01T21:31:14.230Z,100739.16
2019-05-01T21:34:04.178Z,100757.88
2019-05-01T21:36:54.022Z,100751.80
2019-05-01T21:39:44.266Z,100749.58
2019-05-01T21:42:33.111Z,100744.75
2019-05-01T21:45:23.000Z,100735.55
2019-05-01T21:48:13.362Z,100742.78
2019-05-01T21:51:07.131Z,100740.98
2019-05-01T21:53:46.621Z,100734.92
2019-05-01T21:56:36.930Z,100739.08
2019-05-01T21:59:26.171Z,100738.60
2019-05-01T22:02:15.084Z,100739.34
2019-05-01T22:08:34.473Z,100733.48
2019-05-01T22:11:22.808Z,100730.38
2019-05-01T22:32:06.027Z,100730.92
2019-05-01T22:34:54.641Z,100738.24
2019-05-01T22:37:43.585Z,100731.13
2019-05-01T22:41:04.724Z,100726.38
2019-05-01T22:43:42.138Z,100729.92
2019-05-01T22:46:33.857Z,100735.55
2019-05-01T22:49:21.571Z,100726.89
2019-05-01T22:52:10.428Z,100725.43
2019-05-01T22:54:52.279Z,100727.09
2019-05-01T22:57:41.126Z,100723.92
2019-05-01T23:00:49.056Z,100716.08
2019-05-01T23:06:41.786Z,100715.33
2019-05-01T23:12:37.780Z,100710.05
2019-05-01T23:18:55.102Z,100698.64
2019-05-01T23:24:53.343Z,100704.27
2019-05-01T23:27:42.317Z,100701.03
2019-05-01T23:30:31.404Z,100703.44
2019-05-01T23:33:20.325Z,100705.83
2019-05-01T23:36:22.664Z,100698.83
2019-05-01T23:38:59.905Z,100701.81
2019-05-01T23:41:48.760Z,100695.17
2019-05-01T23:44:38.172Z,100698.97
2019-05-01T23:47:28.214Z,100694.55
2019-05-01T23:50:17.133Z,100690.70
2019-05-01T23:53:09.149Z,100687.55
2019-05-01T23:55:49.292Z,100689.51
2019-05-01T23:58:38.228Z,100685.63
